sensor_id;sensor_type;location;lat;lon;timestamp;P1;durP1;ratioP1;P2;durP2;ratioP2
29700;SDS011;57917;51.380;-0.176;2023-09-19T00:08:58;7.28;;;0.93;;
29700;SDS011;57917;51.380;-0.176;2023-09-19T00:14:46;5.43;;;1.15;;
29700;SDS011;57917;51.380;-0.176;2023-09-19T00:20:37;7.13;;;1.65;;
29700;SDS011;57917;51.380;-0.176;2023-09-19T00:26:25;10.52;;;1.60;;
29700;SDS011;57917;51.380;-0.176;2023-09-19T00:32:13;8.13;;;1.13;;
29700;SDS011;57917;51.380;-0.176;2023-09-19T00:38:00;7.13;;;1.50;;
29700;SDS011;57917;51.380;-0.176;2023-09-19T00:43:47;4.10;;;1.15;;
29700;SDS011;57917;51.380;-0.176;2023-09-19T00:49:38;5.55;;;1.10;;
29700;SDS011;57917;51.380;-0.176;2023-09-19T00:55:25;8.35;;;1.25;;
29700;SDS011;57917;51.380;-0.176;2023-09-19T01:01:15;9.82;;;1.33;;
29700;SDS011;57917;51.380;-0.176;2023-09-19T01:07:03;10.00;;;1.58;;
29700;SDS011;57917;51.380;-0.176;2023-09-19T01:31:28;6.60;;;1.20;;
29700;SDS011;57917;51.380;-0.176;2023-09-19T01:37:20;8.40;;;1.67;;
29700;SDS011;57917;51.380;-0.176;2023-09-19T01:43:20;13.40;;;1.67;;
29700;SDS011;57917;51.380;-0.176;2023-09-19T01:49:27;5.78;;;1.55;;
29700;SDS011;57917;51.380;-0.176;2023-09-19T01:55:24;12.57;;;1.75;;
29700;SDS011;57917;51.380;-0.176;2023-09-19T02:01:16;9.23;;;1.65;;
29700;SDS011;57917;51.380;-0.176;2023-09-19T02:07:05;11.55;;;1.77;;
29700;SDS011;57917;51.380;-0.176;2023-09-19T02:12:52;7.32;;;2.00;;
29700;SDS011;57917;51.380;-0.176;2023-09-19T02:18:39;7.05;;;1.50;;
29700;SDS011;57917;51.380;-0.176;2023-09-19T02:24:27;9.23;;;1.38;;
29700;SDS011;57917;51.380;-0.176;2023-09-19T02:30:14;7.18;;;1.55;;
29700;SDS011;57917;51.380;-0.176;2023-09-19T02:36:02;15.95;;;1.90;;
29700;SDS011;57917;51.380;-0.176;2023-09-19T02:41:50;7.60;;;1.10;;
29700;SDS011;57917;51.380;-0.176;2023-09-19T02:47:37;9.73;;;1.90;;
29700;SDS011;57917;51.380;-0.176;2023-09-19T02:53:24;10.98;;;1.92;;
29700;SDS011;57917;51.380;-0.176;2023-09-19T02:59:11;9.93;;;1.10;;
29700;SDS011;57917;51.380;-0.176;2023-09-19T03:04:58;14.18;;;1.70;;
29700;SDS011;57917;51.380;-0.176;2023-09-19T03:10:47;13.60;;;1.70;;
29700;SDS011;57917;51.380;-0.176;2023-09-19T03:16:34;18.67;;;1.85;;
29700;SDS011;57917;51.380;-0.176;2023-09-19T03:22:24;14.10;;;1.70;;
29700;SDS011;57917;51.380;-0.176;2023-09-19T03:28:11;10.45;;;1.50;;
29700;SDS011;57917;51.380;-0.176;2023-09-19T03:33:58;9.52;;;1.60;;
29700;SDS011;57917;51.380;-0.176;2023-09-19T03:39:45;8.65;;;1.15;;
29700;SDS011;57917;51.380;-0.176;2023-09-19T03:45:33;4.00;;;0.82;;
29700;SDS011;57917;51.380;-0.176;2023-09-19T03:51:20;11.75;;;1.30;;
29700;SDS011;57917;51.380;-0.176;2023-09-19T03:57:08;12.55;;;1.35;;
29700;SDS011;57917;51.380;-0.176;2023-09-19T04:02:55;12.30;;;1.63;;
29700;SDS011;57917;51.380;-0.176;2023-09-19T04:08:43;9.15;;;1.95;;
29700;SDS011;57917;51.380;-0.176;2023-09-19T04:14:31;15.00;;;1.52;;
29700;SDS011;57917;51.380;-0.176;2023-09-19T04:20:18;6.80;;;1.20;;
29700;SDS011;57917;51.380;-0.176;2023-09-19T04:26:11;9.20;;;1.25;;
29700;SDS011;57917;51.380;-0.176;2023-09-19T04:31:59;10.20;;;1.20;;
29700;SDS011;57917;51.380;-0.176;2023-09-19T04:37:45;8.48;;;1.75;;
29700;SDS011;57917;51.380;-0.176;2023-09-19T04:43:34;6.30;;;0.75;;
29700;SDS011;57917;51.380;-0.176;2023-09-19T04:49:21;10.45;;;1.15;;
29700;SDS011;57917;51.380;-0.176;2023-09-19T04:55:09;10.57;;;1.17;;
29700;SDS011;57917;51.380;-0.176;2023-09-19T05:00:57;4.07;;;1.30;;
29700;SDS011;57917;51.380;-0.176;2023-09-19T05:06:43;13.52;;;1.52;;
29700;SDS011;57917;51.380;-0.176;2023-09-19T05:12:33;14.23;;;1.63;;
29700;SDS011;57917;51.380;-0.176;2023-09-19T05:18:24;12.38;;;1.27;;
29700;SDS011;57917;51.380;-0.176;2023-09-19T05:24:11;13.48;;;1.52;;
29700;SDS011;57917;51.380;-0.176;2023-09-19T05:30:00;11.85;;;1.60;;
29700;SDS011;57917;51.380;-0.176;2023-09-19T05:35:47;16.08;;;2.70;;
29700;SDS011;57917;51.380;-0.176;2023-09-19T05:41:37;6.88;;;1.58;;
29700;SDS011;57917;51.380;-0.176;2023-09-19T05:47:26;8.48;;;1.95;;
29700;SDS011;57917;51.380;-0.176;2023-09-19T05:53:13;11.10;;;1.45;;
29700;SDS011;57917;51.380;-0.176;2023-09-19T05:59:01;16.45;;;1.20;;
29700;SDS011;57917;51.380;-0.176;2023-09-19T06:04:50;8.32;;;1.20;;
29700;SDS011;57917;51.380;-0.176;2023-09-19T06:10:39;5.10;;;1.02;;
29700;SDS011;57917;51.380;-0.176;2023-09-19T06:16:27;11.48;;;1.27;;
29700;SDS011;57917;51.380;-0.176;2023-09-19T06:22:18;2.35;;;0.70;;
29700;SDS011;57917;51.380;-0.176;2023-09-19T06:28:06;4.18;;;0.70;;
29700;SDS011;57917;51.380;-0.176;2023-09-19T06:33:54;6.47;;;1.02;;
29700;SDS011;57917;51.380;-0.176;2023-09-19T06:39:42;4.05;;;0.93;;
29700;SDS011;57917;51.380;-0.176;2023-09-19T06:45:29;5.53;;;0.80;;
29700;SDS011;57917;51.380;-0.176;2023-09-19T06:51:29;2.50;;;0.52;;
29700;SDS011;57917;51.380;-0.176;2023-09-19T07:03:12;3.38;;;1.27;;
29700;SDS011;57917;51.380;-0.176;2023-09-19T07:09:00;9.77;;;1.25;;
29700;SDS011;57917;51.380;-0.176;2023-09-19T07:14:50;11.80;;;1.73;;
29700;SDS011;57917;51.380;-0.176;2023-09-19T07:20:40;4.20;;;0.93;;
29700;SDS011;57917;51.380;-0.176;2023-09-19T07:26:31;11.00;;;1.30;;
29700;SDS011;57917;51.380;-0.176;2023-09-19T07:32:19;6.25;;;1.27;;
29700;SDS011;57917;51.380;-0.176;2023-09-19T07:38:07;7.80;;;1.40;;
29700;SDS011;57917;51.380;-0.176;2023-09-19T07:43:54;10.90;;;1.63;;
29700;SDS011;57917;51.380;-0.176;2023-09-19T07:49:46;4.85;;;1.40;;
29700;SDS011;57917;51.380;-0.176;2023-09-19T07:55:34;12.05;;;1.35;;
29700;SDS011;57917;51.380;-0.176;2023-09-19T08:01:21;4.68;;;1.55;;
29700;SDS011;57917;51.380;-0.176;2023-09-19T08:07:10;7.35;;;1.60;;
29700;SDS011;57917;51.380;-0.176;2023-09-19T08:12:57;5.25;;;1.08;;
29700;SDS011;57917;51.380;-0.176;2023-09-19T08:18:49;14.57;;;1.50;;
29700;SDS011;57917;51.380;-0.176;2023-09-19T08:24:44;6.55;;;1.75;;
29700;SDS011;57917;51.380;-0.176;2023-09-19T08:30:31;17.02;;;2.20;;
29700;SDS011;57917;51.380;-0.176;2023-09-19T08:36:21;13.68;;;2.28;;
29700;SDS011;57917;51.380;-0.176;2023-09-19T08:42:22;7.20;;;2.40;;
29700;SDS011;57917;51.380;-0.176;2023-09-19T08:49:00;11.13;;;2.42;;
29700;SDS011;57917;51.380;-0.176;2023-09-19T08:55:26;10.18;;;2.15;;
29700;SDS011;57917;51.380;-0.176;2023-09-19T09:01:26;18.08;;;2.42;;
29700;SDS011;57917;51.380;-0.176;2023-09-19T09:14:43;17.92;;;2.53;;
29700;SDS011;57917;51.380;-0.176;2023-09-19T09:28:10;12.98;;;2.53;;
29700;SDS011;57917;51.380;-0.176;2023-09-19T09:34:01;20.48;;;2.30;;
29700;SDS011;57917;51.380;-0.176;2023-09-19T09:39:50;14.93;;;2.70;;
29700;SDS011;57917;51.380;-0.176;2023-09-19T09:53:04;9.45;;;2.53;;
29700;SDS011;57917;51.380;-0.176;2023-09-19T09:59:48;18.50;;;2.40;;
29700;SDS011;57917;51.380;-0.176;2023-09-19T10:05:45;17.45;;;3.33;;
29700;SDS011;57917;51.380;-0.176;2023-09-19T10:11:47;21.00;;;3.17;;
29700;SDS011;57917;51.380;-0.176;2023-09-19T10:17:47;21.45;;;3.70;;
29700;SDS011;57917;51.380;-0.176;2023-09-19T10:23:46;14.85;;;3.15;;
29700;SDS011;57917;51.380;-0.176;2023-09-19T10:29:34;25.70;;;3.97;;
29700;SDS011;57917;51.380;-0.176;2023-09-19T10:35:25;24.80;;;3.13;;
29700;SDS011;57917;51.380;-0.176;2023-09-19T10:41:20;28.50;;;4.37;;
29700;SDS011;57917;51.380;-0.176;2023-09-19T10:47:11;14.65;;;2.55;;
29700;SDS011;57917;51.380;-0.176;2023-09-19T10:53:00;14.18;;;2.92;;
29700;SDS011;57917;51.380;-0.176;2023-09-19T11:06:31;12.95;;;3.08;;
29700;SDS011;57917;51.380;-0.176;2023-09-19T11:24:29;10.75;;;2.33;;
29700;SDS011;57917;51.380;-0.176;2023-09-19T11:31:00;8.35;;;2.20;;
29700;SDS011;57917;51.380;-0.176;2023-09-19T11:43:30;15.55;;;2.35;;
29700;SDS011;57917;51.380;-0.176;2023-09-19T11:49:28;15.25;;;2.53;;
29700;SDS011;57917;51.380;-0.176;2023-09-19T11:55:28;9.48;;;2.03;;
29700;SDS011;57917;51.380;-0.176;2023-09-19T12:01:42;7.85;;;1.88;;
29700;SDS011;57917;51.380;-0.176;2023-09-19T12:07:52;6.72;;;1.85;;
29700;SDS011;57917;51.380;-0.176;2023-09-19T12:14:10;12.45;;;2.30;;
29700;SDS011;57917;51.380;-0.176;2023-09-19T12:19:58;11.88;;;2.45;;
29700;SDS011;57917;51.380;-0.176;2023-09-19T12:25:47;9.98;;;2.10;;
29700;SDS011;57917;51.380;-0.176;2023-09-19T12:38:26;12.60;;;2.47;;
29700;SDS011;57917;51.380;-0.176;2023-09-19T12:51:25;9.02;;;2.03;;
29700;SDS011;57917;51.380;-0.176;2023-09-19T13:18:53;16.08;;;2.50;;
29700;SDS011;57917;51.380;-0.176;2023-09-19T13:24:48;9.57;;;2.47;;
29700;SDS011;57917;51.380;-0.176;2023-09-19T14:14:59;7.68;;;2.30;;
29700;SDS011;57917;51.380;-0.176;2023-09-19T14:21:33;9.43;;;1.63;;
29700;SDS011;57917;51.380;-0.176;2023-09-19T14:27:59;5.25;;;1.70;;
29700;SDS011;57917;51.380;-0.176;2023-09-19T14:34:39;8.50;;;1.60;;
29700;SDS011;57917;51.380;-0.176;2023-09-19T14:40:42;6.35;;;1.55;;
29700;SDS011;57917;51.380;-0.176;2023-09-19T14:46:43;7.75;;;2.25;;
29700;SDS011;57917;51.380;-0.176;2023-09-19T14:59:58;7.57;;;1.63;;
29700;SDS011;57917;51.380;-0.176;2023-09-19T15:06:04;4.82;;;1.58;;
29700;SDS011;57917;51.380;-0.176;2023-09-19T15:12:03;6.53;;;2.35;;
29700;SDS011;57917;51.380;-0.176;2023-09-19T15:17:50;4.53;;;1.08;;
29700;SDS011;57917;51.380;-0.176;2023-09-19T15:23:40;2.85;;;0.95;;
29700;SDS011;57917;51.380;-0.176;2023-09-19T15:29:29;5.13;;;1.02;;
29700;SDS011;57917;51.380;-0.176;2023-09-19T15:35:21;4.13;;;1.30;;
29700;SDS011;57917;51.380;-0.176;2023-09-19T15:41:30;5.25;;;1.60;;
29700;SDS011;57917;51.380;-0.176;2023-09-19T15:47:36;5.88;;;1.58;;
29700;SDS011;57917;51.380;-0.176;2023-09-19T15:53:31;2.45;;;1.23;;
29700;SDS011;57917;51.380;-0.176;2023-09-19T15:59:39;6.47;;;1.40;;
29700;SDS011;57917;51.380;-0.176;2023-09-19T16:05:39;10.65;;;1.80;;
29700;SDS011;57917;51.380;-0.176;2023-09-19T16:12:02;5.80;;;2.10;;
29700;SDS011;57917;51.380;-0.176;2023-09-19T16:17:49;9.13;;;1.63;;
29700;SDS011;57917;51.380;-0.176;2023-09-19T16:23:36;11.93;;;1.80;;
29700;SDS011;57917;51.380;-0.176;2023-09-19T16:29:23;5.47;;;2.08;;
29700;SDS011;57917;51.380;-0.176;2023-09-19T16:35:11;7.35;;;2.28;;
29700;SDS011;57917;51.380;-0.176;2023-09-19T16:40:58;13.20;;;2.00;;
29700;SDS011;57917;51.380;-0.176;2023-09-19T16:46:45;16.30;;;3.17;;
29700;SDS011;57917;51.380;-0.176;2023-09-19T16:52:33;17.88;;;2.85;;
29700;SDS011;57917;51.380;-0.176;2023-09-19T16:58:20;12.10;;;2.40;;
29700;SDS011;57917;51.380;-0.176;2023-09-19T17:04:11;14.70;;;2.75;;
29700;SDS011;57917;51.380;-0.176;2023-09-19T17:10:00;14.45;;;2.67;;
29700;SDS011;57917;51.380;-0.176;2023-09-19T17:15:58;9.17;;;2.23;;
29700;SDS011;57917;51.380;-0.176;2023-09-19T17:21:48;12.52;;;2.38;;
29700;SDS011;57917;51.380;-0.176;2023-09-19T17:27:35;10.85;;;2.08;;
29700;SDS011;57917;51.380;-0.176;2023-09-19T17:33:49;10.30;;;2.22;;
29700;SDS011;57917;51.380;-0.176;2023-09-19T17:39:41;14.38;;;2.03;;
29700;SDS011;57917;51.380;-0.176;2023-09-19T17:45:50;25.30;;;2.03;;
29700;SDS011;57917;51.380;-0.176;2023-09-19T17:51:37;11.88;;;1.73;;
29700;SDS011;57917;51.380;-0.176;2023-09-19T17:57:25;11.45;;;1.40;;
29700;SDS011;57917;51.380;-0.176;2023-09-19T18:03:12;8.18;;;1.52;;
29700;SDS011;57917;51.380;-0.176;2023-09-19T18:09:00;10.60;;;1.80;;
29700;SDS011;57917;51.380;-0.176;2023-09-19T18:14:48;5.72;;;1.50;;
29700;SDS011;57917;51.380;-0.176;2023-09-19T18:20:35;5.53;;;1.25;;
29700;SDS011;57917;51.380;-0.176;2023-09-19T18:26:24;6.22;;;1.55;;
29700;SDS011;57917;51.380;-0.176;2023-09-19T18:32:12;4.78;;;1.13;;
29700;SDS011;57917;51.380;-0.176;2023-09-19T18:37:59;7.20;;;1.38;;
29700;SDS011;57917;51.380;-0.176;2023-09-19T18:43:47;3.78;;;1.08;;
29700;SDS011;57917;51.380;-0.176;2023-09-19T18:49:34;7.63;;;1.98;;
29700;SDS011;57917;51.380;-0.176;2023-09-19T18:55:22;11.48;;;1.55;;
29700;SDS011;57917;51.380;-0.176;2023-09-19T19:01:10;6.45;;;1.33;;
29700;SDS011;57917;51.380;-0.176;2023-09-19T19:06:58;4.28;;;1.00;;
29700;SDS011;57917;51.380;-0.176;2023-09-19T19:12:46;7.22;;;1.20;;
29700;SDS011;57917;51.380;-0.176;2023-09-19T19:18:33;4.35;;;1.52;;
29700;SDS011;57917;51.380;-0.176;2023-09-19T19:24:19;5.68;;;1.48;;
29700;SDS011;57917;51.380;-0.176;2023-09-19T19:30:07;8.88;;;1.30;;
29700;SDS011;57917;51.380;-0.176;2023-09-19T19:36:10;8.93;;;0.90;;
29700;SDS011;57917;51.380;-0.176;2023-09-19T19:49:52;11.10;;;1.92;;
29700;SDS011;57917;51.380;-0.176;2023-09-19T19:55:48;5.45;;;1.70;;
29700;SDS011;57917;51.380;-0.176;2023-09-19T20:01:57;4.07;;;1.08;;
29700;SDS011;57917;51.380;-0.176;2023-09-19T20:07:44;5.28;;;1.45;;
29700;SDS011;57917;51.380;-0.176;2023-09-19T20:13:35;9.15;;;1.02;;
29700;SDS011;57917;51.380;-0.176;2023-09-19T20:19:30;5.80;;;1.23;;
29700;SDS011;57917;51.380;-0.176;2023-09-19T20:25:20;6.40;;;1.02;;
29700;SDS011;57917;51.380;-0.176;2023-09-19T20:31:18;5.00;;;1.83;;
29700;SDS011;57917;51.380;-0.176;2023-09-19T20:37:06;8.32;;;1.23;;
29700;SDS011;57917;51.380;-0.176;2023-09-19T20:42:53;3.97;;;1.42;;
29700;SDS011;57917;51.380;-0.176;2023-09-19T20:48:50;9.65;;;1.45;;
29700;SDS011;57917;51.380;-0.176;2023-09-19T20:55:00;6.60;;;1.73;;
29700;SDS011;57917;51.380;-0.176;2023-09-19T21:00:51;7.55;;;1.60;;
29700;SDS011;57917;51.380;-0.176;2023-09-19T21:06:41;8.65;;;1.63;;
29700;SDS011;57917;51.380;-0.176;2023-09-19T21:12:30;4.43;;;0.85;;
29700;SDS011;57917;51.380;-0.176;2023-09-19T21:18:21;7.60;;;1.30;;
29700;SDS011;57917;51.380;-0.176;2023-09-19T21:24:08;4.82;;;1.30;;
29700;SDS011;57917;51.380;-0.176;2023-09-19T21:29:58;5.82;;;1.58;;
29700;SDS011;57917;51.380;-0.176;2023-09-19T21:35:46;8.15;;;1.25;;
29700;SDS011;57917;51.380;-0.176;2023-09-19T21:41:39;7.28;;;1.83;;
29700;SDS011;57917;51.380;-0.176;2023-09-19T21:47:26;8.68;;;2.20;;
29700;SDS011;57917;51.380;-0.176;2023-09-19T21:53:15;6.80;;;1.42;;
29700;SDS011;57917;51.380;-0.176;2023-09-19T21:59:02;5.15;;;1.63;;
29700;SDS011;57917;51.380;-0.176;2023-09-19T22:04:52;14.20;;;1.27;;
29700;SDS011;57917;51.380;-0.176;2023-09-19T22:16:42;8.75;;;1.83;;
29700;SDS011;57917;51.380;-0.176;2023-09-19T22:22:30;6.32;;;1.20;;
29700;SDS011;57917;51.380;-0.176;2023-09-19T22:28:22;16.58;;;1.60;;
29700;SDS011;57917;51.380;-0.176;2023-09-19T22:34:09;7.13;;;1.55;;
29700;SDS011;57917;51.380;-0.176;2023-09-19T22:40:03;7.20;;;1.73;;
29700;SDS011;57917;51.380;-0.176;2023-09-19T22:46:02;6.43;;;1.10;;
29700;SDS011;57917;51.380;-0.176;2023-09-19T22:51:57;7.97;;;1.80;;
29700;SDS011;57917;51.380;-0.176;2023-09-19T22:57:46;3.08;;;0.93;;
29700;SDS011;57917;51.380;-0.176;2023-09-19T23:03:36;8.95;;;1.55;;
29700;SDS011;57917;51.380;-0.176;2023-09-19T23:17:07;6.00;;;1.00;;
29700;SDS011;57917;51.380;-0.176;2023-09-19T23:23:09;8.60;;;1.33;;
29700;SDS011;57917;51.380;-0.176;2023-09-19T23:29:03;4.10;;;1.10;;
29700;SDS011;57917;51.380;-0.176;2023-09-19T23:34:50;3.67;;;1.17;;
29700;SDS011;57917;51.380;-0.176;2023-09-19T23:40:37;5.63;;;1.10;;
29700;SDS011;57917;51.380;-0.176;2023-09-19T23:46:25;6.65;;;1.23;;
29700;SDS011;57917;51.380;-0.176;2023-09-19T23:52:23;9.13;;;1.40;;
29700;SDS011;57917;51.380;-0.176;2023-09-19T23:58:09;6.57;;;1.23;;
